Time;durP1;ratioP1;P1;durP2;ratioP2;P2;SDS_P1;SDS_P2;PMS_P1;PMS_P2;Temp;Humidity;BMP_temperature;BMP_pressure;BME280_temperature;BME280_humidity;BME280_pressure;Samples;Min_cycle;Max_cycle;Signal;HPM_P1;HPM_P2
2023/09/06 00:01:56;;;;;;;22.02;10.52;;;;;;;19.30;96.75;101878.53;6070538;19;20058;-70
2023/09/06 00:04:01;;;;;;;20.35;11.43;;;;;;;19.30;96.20;101875.00;6071724;19;20003;-70
2023/09/06 00:06:08;;;;;;;22.50;10.35;;;;;;;19.35;95.49;101880.88;6079622;19;20031;-70
2023/09/06 00:08:14;;;;;;;21.05;10.23;;;;;;;19.35;95.48;101877.38;6072797;19;20682;-70
2023/09/06 00:10:21;;;;;;;18.40;9.32;;;;;;;19.30;95.49;101883.00;6082282;19;20006;-71
2023/09/06 00:12:29;;;;;;;17.35;8.80;;;;;;;19.24;95.27;101884.22;6061512;19;20086;-70
2023/09/06 00:14:36;;;;;;;17.85;8.90;;;;;;;19.17;95.26;101893.53;6061718;19;20529;-71
2023/09/06 00:16:42;;;;;;;16.20;8.68;;;;;;;19.15;95.30;101887.44;6060013;19;20186;-71
2023/09/06 00:18:47;;;;;;;19.83;9.27;;;;;;;19.07;96.09;101893.22;6067702;19;20211;-70
2023/09/06 00:20:50;;;;;;;21.52;9.80;;;;;;;19.00;95.64;101891.00;6072752;19;20323;-70
2023/09/06 00:23:01;;;;;;;16.30;7.80;;;;;;;18.92;96.21;101887.94;6065956;19;20556;-71
2023/09/06 00:25:08;;;;;;;18.73;7.32;;;;;;;18.85;96.69;101883.00;6060305;19;20082;-71
2023/09/06 00:27:14;;;;;;;14.55;8.07;;;;;;;18.78;95.68;101881.63;6070703;19;20013;-71
2023/09/06 00:29:20;;;;;;;17.73;8.45;;;;;;;18.73;96.62;101877.50;6066720;19;20007;-71
2023/09/06 00:31:28;;;;;;;14.60;7.80;;;;;;;18.67;97.92;101883.16;6063458;19;20148;-70
2023/09/06 00:33:35;;;;;;;16.15;7.82;;;;;;;18.60;96.94;101888.00;6059194;19;20247;-69
2023/09/06 00:35:43;;;;;;;14.95;7.90;;;;;;;18.53;97.57;101881.28;6063273;19;20093;-70
2023/09/06 00:37:49;;;;;;;14.93;7.75;;;;;;;18.49;98.23;101885.09;6066916;19;20140;-68
2023/09/06 00:39:54;;;;;;;15.50;7.35;;;;;;;18.43;98.33;101887.16;6067140;19;20459;-69
2023/09/06 00:42:00;;;;;;;13.07;6.82;;;;;;;18.40;97.89;101887.34;6065362;19;20387;-69
2023/09/06 00:44:08;;;;;;;12.75;7.00;;;;;;;18.36;97.67;101892.91;6079337;19;20126;-69
2023/09/06 00:46:11;;;;;;;14.85;8.60;;;;;;;18.36;100.00;101875.13;6062010;19;20015;-69
2023/09/06 00:48:21;;;;;;;;;;;;;;;18.35;99.44;101875.22;6060749;19;20356;-69
2023/09/06 00:50:28;;;;;;;12.77;6.65;;;;;;;18.33;100.00;101880.63;6063764;19;20431;-69
2023/09/06 00:52:33;;;;;;;13.68;6.68;;;;;;;18.28;100.00;101882.69;6072624;19;20145;-69
2023/09/06 00:54:39;;;;;;;16.75;7.57;;;;;;;18.21;100.00;101886.63;6074693;19;20007;-69
2023/09/06 00:56:44;;;;;;;14.80;7.47;;;;;;;18.21;100.00;101891.97;6076551;19;21653;-70
2023/09/06 00:58:49;;;;;;;14.07;7.15;;;;;;;18.15;99.11;101887.84;6074247;19;20446;-70
2023/09/06 01:00:55;;;;;;;13.60;6.70;;;;;;;18.12;99.43;101882.69;6073018;19;20003;-69
2023/09/06 01:03:00;;;;;;;15.93;7.95;;;;;;;18.11;100.00;101890.75;6075401;19;20441;-70
2023/09/06 01:05:13;;;;;;;16.27;7.50;;;;;;;18.09;100.00;101897.94;6078577;19;19999;-70
2023/09/06 01:07:20;;;;;;;13.48;7.68;;;;;;;18.06;100.00;101893.69;6076928;19;20136;-70
2023/09/06 01:09:25;;;;;;;15.70;7.00;;;;;;;18.04;100.00;101894.72;6083197;19;20268;-69
2023/09/06 01:11:32;;;;;;;13.20;7.57;;;;;;;18.02;100.00;101894.78;6080242;19;20011;-70
2023/09/06 01:13:34;;;;;;;15.80;7.80;;;;;;;18.02;100.00;101888.63;6082202;19;20790;-70
2023/09/06 01:15:46;;;;;;;11.68;6.35;;;;;;;17.99;100.00;101890.50;6080376;19;20016;-69
2023/09/06 01:17:56;;;;;;;14.27;7.03;;;;;;;17.94;100.00;101889.03;6071307;19;20014;-70
2023/09/06 01:20:15;;;;;;;12.10;6.55;;;;;;;17.92;100.00;101889.09;6078926;19;20105;-69
2023/09/06 01:22:29;;;;;;;19.67;7.93;;;;;;;17.94;100.00;101892.53;6072612;19;20758;-70
2023/09/06 01:24:37;;;;;;;13.82;6.78;;;;;;;17.90;100.00;101890.97;6067756;19;20010;-70
2023/09/06 01:26:44;;;;;;;11.90;6.38;;;;;;;17.85;100.00;101889.53;6075671;19;20014;-69
2023/09/06 01:28:50;;;;;;;14.88;6.68;;;;;;;17.81;100.00;101893.31;6068694;19;20028;-69
2023/09/06 01:30:59;;;;;;;12.82;6.45;;;;;;;17.81;100.00;101891.50;6066698;19;20024;-69
2023/09/06 01:33:04;;;;;;;14.55;7.18;;;;;;;17.78;100.00;101900.47;6070617;19;20018;-71
2023/09/06 01:35:11;;;;;;;12.85;6.82;;;;;;;17.76;100.00;101890.84;6073982;19;20017;-68
2023/09/06 01:37:16;;;;;;;11.68;6.05;;;;;;;17.73;100.00;101897.19;6071158;19;20014;-69
2023/09/06 01:39:21;;;;;;;12.52;6.47;;;;;;;17.71;100.00;101899.06;6079654;19;20010;-71
2023/09/06 01:41:29;;;;;;;15.15;6.53;;;;;;;17.71;100.00;101896.41;6074529;19;20374;-71
2023/09/06 01:43:34;;;;;;;13.57;6.88;;;;;;;17.69;100.00;101892.13;6074918;19;20006;-70
2023/09/06 01:45:40;;;;;;;11.82;6.40;;;;;;;17.65;100.00;101896.75;6074989;19;20219;-69
2023/09/06 01:47:48;;;;;;;14.18;6.78;;;;;;;17.67;100.00;101896.69;6071690;19;20718;-69
2023/09/06 01:49:54;;;;;;;11.25;6.10;;;;;;;17.63;100.00;101895.13;6068183;19;20487;-69
2023/09/06 01:52:01;;;;;;;14.85;6.55;;;;;;;17.59;100.00;101894.44;6070055;19;20410;-70
2023/09/06 01:54:08;;;;;;;12.07;6.22;;;;;;;17.57;100.00;101890.97;6068711;19;20011;-70
2023/09/06 01:56:16;;;;;;;12.82;6.53;;;;;;;17.61;100.00;101895.19;6072802;19;20178;-69
2023/09/06 01:58:25;;;;;;;12.77;7.13;;;;;;;17.61;100.00;101891.66;6083090;19;20419;-71
2023/09/06 02:00:34;;;;;;;11.30;6.80;;;;;;;17.57;100.00;101900.75;6059707;19;20082;-70
2023/09/06 02:02:39;;;;;;;11.77;6.43;;;;;;;17.52;100.00;101896.53;6066042;19;20265;-70
2023/09/06 02:04:45;;;;;;;12.13;7.03;;;;;;;17.51;100.00;101891.31;6069129;19;20043;-69
2023/09/06 02:06:50;;;;;;;10.93;6.20;;;;;;;17.53;100.00;101898.25;6063886;19;20019;-69
2023/09/06 02:08:56;;;;;;;13.23;6.63;;;;;;;17.50;100.00;101898.41;6071540;19;20421;-69
2023/09/06 02:11:01;;;;;;;14.50;7.72;;;;;;;17.51;100.00;101901.94;6063318;19;20016;-69
2023/09/06 02:13:08;;;;;;;13.13;7.43;;;;;;;17.49;100.00;101903.81;6068302;19;20279;-69
2023/09/06 02:15:16;;;;;;;12.40;6.88;;;;;;;17.42;100.00;101905.94;6069599;19;20014;-69
2023/09/06 02:17:21;;;;;;;14.27;7.60;;;;;;;17.43;100.00;101907.66;6072002;19;20034;-70
2023/09/06 02:19:29;;;;;;;13.45;7.13;;;;;;;17.39;100.00;101907.91;6064922;19;20013;-70
2023/09/06 02:21:34;;;;;;;11.93;6.90;;;;;;;17.37;100.00;101905.31;6066226;19;20007;-70
2023/09/06 02:23:39;;;;;;;12.07;6.38;;;;;;;17.36;100.00;101903.59;6064713;19;20010;-69
2023/09/06 02:25:44;;;;;;;12.52;6.75;;;;;;;17.41;100.00;101909.53;6065510;19;20034;-69
2023/09/06 02:27:47;;;;;;;8.95;5.50;;;;;;;17.39;100.00;101905.25;6067022;19;20183;-69
2023/09/06 02:29:54;;;;;;;12.60;5.97;;;;;;;17.36;100.00;101903.59;6073513;19;20002;-69
2023/09/06 02:32:02;;;;;;;11.90;5.97;;;;;;;17.34;100.00;101906.31;6070474;19;20499;-69
2023/09/06 02:34:08;;;;;;;14.82;8.80;;;;;;;17.34;100.00;101910.78;6071672;19;20171;-70
2023/09/06 02:36:13;;;;;;;16.40;9.25;;;;;;;17.36;100.00;101908.91;6076917;19;20295;-69
2023/09/06 02:38:18;;;;;;;11.70;7.32;;;;;;;17.38;100.00;101907.03;6077086;19;20386;-69
2023/09/06 02:40:20;;;;;;;10.82;6.07;;;;;;;17.36;100.00;101906.25;6069479;19;20004;-70
2023/09/06 02:42:29;;;;;;;11.98;6.78;;;;;;;17.34;100.00;101911.63;6064133;19;20561;-69
2023/09/06 02:44:34;;;;;;;11.68;6.93;;;;;;;17.29;100.00;101908.34;6076264;19;20014;-70
2023/09/06 02:46:40;;;;;;;10.55;6.78;;;;;;;17.26;100.00;101907.66;6073683;19;20428;-69
2023/09/06 02:48:48;;;;;;;13.32;7.45;;;;;;;17.25;100.00;101905.97;6069523;19;20302;-69
2023/09/06 02:50:53;;;;;;;10.85;6.70;;;;;;;17.21;100.00;101904.38;6062431;19;20011;-69
2023/09/06 02:53:01;;;;;;;13.00;6.85;;;;;;;17.19;100.00;101901.78;6077092;19;20477;-69
2023/09/06 02:55:10;;;;;;;10.65;6.60;;;;;;;17.17;100.00;101905.47;6076702;19;20037;-69
2023/09/06 02:57:16;;;;;;;13.95;7.72;;;;;;;17.14;100.00;101905.63;6076414;19;20489;-69
2023/09/06 02:59:21;;;;;;;11.75;5.68;;;;;;;17.11;100.00;101910.19;6076092;19;20014;-70
2023/09/06 03:01:30;;;;;;;11.82;6.88;;;;;;;17.12;100.00;101905.72;6069613;19;20220;-69
2023/09/06 03:03:36;;;;;;;13.80;7.88;;;;;;;17.12;100.00;101908.38;6070750;19;20002;-70
2023/09/06 03:05:44;;;;;;;13.50;7.68;;;;;;;17.10;100.00;101908.44;6070909;19;20443;-70
2023/09/06 03:07:53;;;;;;;14.65;6.63;;;;;;;17.07;100.00;101908.59;6063769;19;20197;-69
2023/09/06 03:10:01;;;;;;;10.30;6.13;;;;;;;17.11;100.00;101915.50;6064996;19;20010;-69
2023/09/06 03:12:11;;;;;;;12.32;6.20;;;;;;;17.13;100.00;101906.59;6065779;19;20141;-70
2023/09/06 03:14:17;;;;;;;12.85;7.10;;;;;;;17.14;100.00;101905.63;6074218;19;20031;-70
2023/09/06 03:16:27;;;;;;;10.77;6.65;;;;;;;17.14;100.00;101902.97;6069250;19;20011;-70
2023/09/06 03:18:32;;;;;;;12.18;6.82;;;;;;;17.14;100.00;101902.97;6074353;19;20556;-70
2023/09/06 03:20:42;;;;;;;10.70;6.63;;;;;;;17.16;100.00;101907.28;6069145;19;20106;-70
2023/09/06 03:22:52;;;;;;;13.05;6.90;;;;;;;17.16;100.00;101917.03;6075367;19;20011;-73
2023/09/06 03:25:02;;;;;;;13.15;7.35;;;;;;;17.13;100.00;101911.91;6067198;19;20098;-70
2023/09/06 03:27:10;;;;;;;10.18;6.55;;;;;;;17.07;100.00;101913.06;6072791;19;20027;-71
2023/09/06 03:29:15;;;;;;;14.55;7.78;;;;;;;17.03;100.00;101912.34;6080335;19;20560;-71
2023/09/06 03:31:20;;;;;;;16.38;7.78;;;;;;;17.03;100.00;101915.00;6082826;19;20014;-70
2023/09/06 03:33:31;;;;;;;12.52;7.40;;;;;;;17.01;100.00;101921.31;6072268;19;20433;-71
2023/09/06 03:35:36;;;;;;;12.57;6.78;;;;;;;17.00;100.00;101915.16;6074432;19;20018;-71
2023/09/06 03:37:41;;;;;;;11.00;7.00;;;;;;;17.00;100.00;101915.16;6075869;19;20494;-70
2023/09/06 03:39:53;;;;;;;10.75;5.70;;;;;;;17.00;100.00;101919.63;6075314;19;20640;-72
2023/09/06 03:42:01;;;;;;;10.95;7.38;;;;;;;17.02;100.00;101921.25;6051439;19;20051;-71
2023/09/06 03:44:07;;;;;;;13.13;6.53;;;;;;;17.01;100.00;101919.56;6070135;19;20303;-72
2023/09/06 03:46:14;;;;;;;11.45;6.55;;;;;;;16.99;100.00;101921.41;6076378;19;20042;-72
2023/09/06 03:48:19;;;;;;;10.35;6.53;;;;;;;16.95;100.00;101924.28;6078245;19;20550;-72
2023/09/06 03:50:24;;;;;;;11.52;7.18;;;;;;;16.89;100.00;101925.47;6071123;19;20557;-73
2023/09/06 03:52:31;;;;;;;12.48;6.40;;;;;;;16.89;100.00;101922.81;6060814;19;20011;-71
2023/09/06 03:54:37;;;;;;;12.55;6.20;;;;;;;16.91;100.00;101917.44;6075854;19;20023;-72
2023/09/06 03:56:45;;;;;;;14.65;6.30;;;;;;;16.89;100.00;101930.78;6074519;19;20333;-72
2023/09/06 03:58:53;;;;;;;10.13;6.35;;;;;;;16.88;100.00;101929.94;6077220;19;20011;-72
2023/09/06 04:00:58;;;;;;;12.05;7.07;;;;;;;16.91;100.00;101925.41;6073214;19;20014;-72
2023/09/06 04:03:04;;;;;;;10.80;6.35;;;;;;;16.92;100.00;101930.63;6076359;19;20010;-70
2023/09/06 04:05:12;;;;;;;12.27;7.95;;;;;;;16.86;100.00;101930.94;6068851;19;20678;-70
2023/09/06 04:07:18;;;;;;;10.20;5.40;;;;;;;16.79;100.00;101930.38;6073197;19;20011;-72
2023/09/06 04:09:28;;;;;;;9.95;6.60;;;;;;;16.76;100.00;101935.78;6072103;19;20006;-70
2023/09/06 04:11:39;;;;;;;11.35;6.63;;;;;;;16.79;100.00;101929.50;6071490;19;20018;-70
2023/09/06 04:13:47;;;;;;;11.20;5.93;;;;;;;16.77;100.00;101920.72;6075043;19;20021;-70
2023/09/06 04:15:54;;;;;;;12.70;6.78;;;;;;;16.75;100.00;101927.94;6075987;19;20003;-71
2023/09/06 04:18:10;;;;;;;10.93;7.10;;;;;;;16.75;100.00;101927.94;6076337;19;20003;-72
2023/09/06 04:20:18;;;;;;;11.20;6.53;;;;;;;16.73;100.00;101924.47;6074020;19;20316;-71
2023/09/06 04:22:26;;;;;;;13.27;6.40;;;;;;;16.70;100.00;101927.28;6067948;19;20630;-70
2023/09/06 04:24:32;;;;;;;13.48;6.60;;;;;;;16.70;100.00;101932.59;6066557;19;20011;-71
2023/09/06 04:26:38;;;;;;;12.35;6.60;;;;;;;16.67;100.00;101937.13;6074539;19;20034;-71
2023/09/06 04:28:51;;;;;;;11.20;6.95;;;;;;;16.63;100.00;101927.56;6071056;19;20026;-71
2023/09/06 04:31:01;;;;;;;14.93;7.53;;;;;;;16.66;100.00;101929.22;6072079;19;20686;-70
2023/09/06 04:33:10;;;;;;;12.13;6.82;;;;;;;16.61;100.00;101932.13;6068263;19;20493;-70
2023/09/06 04:35:17;;;;;;;11.95;6.32;;;;;;;16.65;100.00;101930.16;6070861;19;20484;-71
2023/09/06 04:37:23;;;;;;;11.05;6.47;;;;;;;16.67;100.00;101926.50;6069898;19;20014;-70
2023/09/06 04:39:30;;;;;;;11.88;6.97;;;;;;;16.67;100.00;101926.50;6071881;19;20010;-70
2023/09/06 04:41:38;;;;;;;14.05;7.53;;;;;;;16.69;100.00;101929.06;6072977;19;20015;-71
2023/09/06 04:43:43;;;;;;;11.13;6.30;;;;;;;16.68;100.00;101933.50;6068531;19;20249;-71
2023/09/06 04:45:52;;;;;;;12.20;6.43;;;;;;;16.62;100.00;101933.81;6068565;19;20014;-71
2023/09/06 04:47:57;;;;;;;13.65;7.15;;;;;;;16.58;100.00;101934.88;6068262;19;20636;-71
2023/09/06 04:50:03;;;;;;;12.57;6.70;;;;;;;16.56;100.00;101938.56;6075707;19;20911;-70
2023/09/06 04:52:11;;;;;;;11.32;7.05;;;;;;;16.53;100.00;101939.56;6067135;19;20253;-71
2023/09/06 04:54:16;;;;;;;11.82;7.13;;;;;;;16.56;100.00;101942.09;6060503;19;20264;-71
2023/09/06 04:56:22;;;;;;;11.80;5.93;;;;;;;16.54;100.00;101941.28;6072497;19;20014;-70
2023/09/06 04:58:25;;;;;;;10.82;6.10;;;;;;;16.55;100.00;101935.03;6065823;19;20024;-71
2023/09/06 05:00:36;;;;;;;10.05;6.20;;;;;;;16.54;100.00;101943.09;6065976;19;20468;-71
2023/09/06 05:02:48;;;;;;;11.02;6.05;;;;;;;16.53;100.00;101944.00;6070990;19;20684;-71
2023/09/06 05:04:52;;;;;;;10.77;7.13;;;;;;;16.51;100.00;101948.53;6050628;19;20011;-71
2023/09/06 05:07:00;;;;;;;10.02;6.03;;;;;;;16.53;100.00;101941.34;6069284;19;20010;-71
2023/09/06 05:09:05;;;;;;;11.20;6.20;;;;;;;16.52;100.00;101956.41;6072215;19;20437;-72
2023/09/06 05:11:07;;;;;;;10.02;5.93;;;;;;;16.55;100.00;101950.09;6070261;19;20018;-70
2023/09/06 05:13:13;;;;;;;9.93;6.28;;;;;;;16.60;100.00;101946.28;6068754;19;20011;-72
2023/09/06 05:15:17;;;;;;;12.90;5.93;;;;;;;16.62;100.00;101951.53;6074231;19;20619;-72
2023/09/06 05:17:23;;;;;;;10.05;6.15;;;;;;;16.61;100.00;101953.34;6076378;19;20010;-72
2023/09/06 05:19:31;;;;;;;13.85;6.55;;;;;;;16.65;100.00;101954.91;6069692;19;20019;-72
2023/09/06 05:21:36;;;;;;;13.05;6.93;;;;;;;16.69;100.00;101955.59;6074827;19;20013;-72
2023/09/06 05:23:43;;;;;;;12.95;6.57;;;;;;;16.72;100.00;101949.28;6061766;19;20011;-73
2023/09/06 05:25:49;;;;;;;10.48;6.50;;;;;;;16.73;100.00;101953.69;6063341;19;20479;-72
2023/09/06 05:28:00;;;;;;;10.50;6.57;;;;;;;16.74;100.00;101958.03;6068171;19;20524;-72
2023/09/06 05:30:07;;;;;;;11.85;7.25;;;;;;;16.77;100.00;101957.88;6067872;19;20018;-70
2023/09/06 05:32:17;;;;;;;13.18;7.00;;;;;;;16.79;100.00;101956.06;6068832;19;20006;-72
2023/09/06 05:34:22;;;;;;;13.57;7.80;;;;;;;16.86;100.00;101952.19;6065476;19;20518;-73
2023/09/06 05:36:32;;;;;;;15.98;8.38;;;;;;;16.88;100.00;101961.78;6070533;19;20066;-70
2023/09/06 05:38:40;;;;;;;12.45;7.82;;;;;;;16.92;100.00;101965.13;6067585;19;20642;-71
2023/09/06 05:40:47;;;;;;;12.95;7.15;;;;;;;17.05;100.00;101974.22;6073538;19;23825;-70
2023/09/06 05:42:52;;;;;;;12.50;7.57;;;;;;;17.19;100.00;101965.56;6064125;19;20014;-70
2023/09/06 05:45:00;;;;;;;13.15;7.88;;;;;;;17.33;100.00;101968.38;6078877;19;20037;-71
2023/09/06 05:47:05;;;;;;;13.98;8.07;;;;;;;17.47;100.00;101966.81;6076702;19;20010;-72
2023/09/06 05:49:13;;;;;;;13.85;8.65;;;;;;;17.61;100.00;101971.41;6074098;19;20010;-72
2023/09/06 05:51:18;;;;;;;12.35;7.57;;;;;;;17.73;100.00;101974.28;6072808;19;20034;-72
2023/09/06 05:53:26;;;;;;;14.93;7.75;;;;;;;17.87;100.00;101976.25;6039568;19;20689;-72
2023/09/06 05:55:31;;;;;;;14.20;8.73;;;;;;;18.01;100.00;101977.31;6070018;19;20054;-71
2023/09/06 05:57:36;;;;;;;11.70;6.47;;;;;;;18.14;100.00;101978.38;6073894;19;20002;-72
2023/09/06 05:59:42;;;;;;;11.70;7.10;;;;;;;18.26;100.00;101972.38;6076399;19;20011;-70
2023/09/06 06:01:48;;;;;;;12.38;6.88;;;;;;;18.42;100.00;101980.38;6078163;19;20629;-72
2023/09/06 06:03:55;;;;;;;12.80;7.60;;;;;;;18.59;100.00;101974.13;6075741;19;20010;-72
2023/09/06 06:06:01;;;;;;;13.10;7.47;;;;;;;18.73;100.00;101976.88;6073538;19;20017;-72
2023/09/06 06:08:07;;;;;;;12.25;7.47;;;;;;;18.86;100.00;101980.59;6074403;19;20401;-72
2023/09/06 06:10:15;;;;;;;13.63;7.30;;;;;;;19.01;100.00;101976.19;6057642;19;20067;-72
2023/09/06 06:12:22;;;;;;;16.27;7.78;;;;;;;19.14;100.00;101979.00;6069728;19;20086;-72
2023/09/06 06:14:30;;;;;;;13.00;7.40;;;;;;;19.30;100.00;101973.63;6074774;19;20014;-71
2023/09/06 06:16:36;;;;;;;12.98;7.82;;;;;;;19.45;100.00;101977.16;6069426;19;20718;-70
2023/09/06 06:18:41;;;;;;;11.40;6.53;;;;;;;19.60;100.00;101984.25;6071536;19;20011;-71
2023/09/06 06:21:18;;;;;;;12.43;7.65;;;;;;;19.76;100.00;101975.34;6075254;19;20057;-74
2023/09/06 06:23:24;;;;;;;13.93;7.88;;;;;;;19.90;100.00;101978.88;6057329;19;20006;-72
2023/09/06 06:25:33;;;;;;;16.10;7.78;;;;;;;20.07;100.00;101983.19;6024123;19;20003;-71
2023/09/06 06:27:39;;;;;;;13.95;8.23;;;;;;;20.20;99.15;101980.59;6078879;19;20534;-71
2023/09/06 06:29:45;;;;;;;14.45;7.88;;;;;;;20.33;98.12;101992.22;6074034;19;20028;-71
2023/09/06 06:31:50;;;;;;;13.48;8.10;;;;;;;20.47;97.76;101991.31;6075861;19;20681;-71
2023/09/06 06:33:59;;;;;;;14.43;8.43;;;;;;;20.60;97.16;101994.97;6077618;19;20014;-70
2023/09/06 06:36:04;;;;;;;15.93;7.93;;;;;;;20.71;96.54;101999.59;6079851;19;20007;-71
2023/09/06 06:38:12;;;;;;;14.50;8.77;;;;;;;20.83;95.44;101998.81;6076815;19;20006;-70
2023/09/06 06:40:17;;;;;;;14.82;8.73;;;;;;;20.91;94.88;101998.31;6082043;19;20099;-71
2023/09/06 06:42:25;;;;;;;17.38;8.80;;;;;;;21.03;94.31;101997.47;6080887;19;20006;-71
2023/09/06 06:44:27;;;;;;;16.83;8.65;;;;;;;21.18;93.90;102006.31;6064564;19;20035;-70
2023/09/06 06:46:34;;;;;;;14.68;8.55;;;;;;;21.29;93.00;102005.59;6074146;19;20097;-72
2023/09/06 06:48:39;;;;;;;15.48;9.10;;;;;;;21.37;92.18;102000.56;6075313;19;20006;-70
2023/09/06 06:50:47;;;;;;;18.02;8.18;;;;;;;21.58;92.20;102000.97;6062458;19;20097;-70
2023/09/06 06:52:52;;;;;;;14.52;8.88;;;;;;;21.61;90.26;101997.22;6072779;19;20498;-71
2023/09/06 06:54:59;;;;;;;14.07;8.85;;;;;;;21.72;90.78;102002.69;6067225;19;20038;-72
2023/09/06 06:57:04;;;;;;;16.33;8.85;;;;;;;21.83;90.54;101997.47;6064444;19;20562;-71
2023/09/06 06:59:13;;;;;;;13.35;9.45;;;;;;;22.04;89.66;102002.28;6069623;19;20020;-71
2023/09/06 07:01:24;;;;;;;15.88;9.93;;;;;;;22.18;89.50;102002.16;6069778;19;20028;-71
2023/09/06 07:03:29;;;;;;;14.55;8.88;;;;;;;22.29;88.81;102004.09;6068521;19;20616;-71
2023/09/06 07:05:37;;;;;;;16.08;8.98;;;;;;;22.46;88.17;101995.69;6076172;19;20031;-71
2023/09/06 07:07:40;;;;;;;15.50;9.15;;;;;;;22.65;86.58;102005.94;6067417;19;20086;-71
2023/09/06 07:09:47;;;;;;;15.95;9.02;;;;;;;22.90;85.83;102012.16;6069731;19;20743;-71
2023/09/06 07:11:57;;;;;;;15.88;8.63;;;;;;;22.91;84.71;102020.09;6065940;19;20614;-71
2023/09/06 07:14:02;;;;;;;18.50;8.88;;;;;;;22.99;84.39;102012.38;6060882;19;20279;-70
2023/09/06 07:16:10;;;;;;;12.88;8.13;;;;;;;23.09;84.90;102009.88;6065074;19;20292;-71
2023/09/06 07:18:16;;;;;;;13.07;9.10;;;;;;;23.41;83.91;102014.63;6064356;19;20015;-71
2023/09/06 07:20:22;;;;;;;15.10;8.63;;;;;;;23.42;82.35;102021.69;6065937;19;20019;-71
2023/09/06 07:22:30;;;;;;;13.60;8.10;;;;;;;23.55;82.83;102018.91;6061837;19;20006;-71
2023/09/06 07:24:37;;;;;;;15.50;8.60;;;;;;;23.65;80.73;102018.09;6058761;19;20006;-71
2023/09/06 07:26:43;;;;;;;16.00;8.38;;;;;;;23.87;80.03;102017.28;6074784;19;20148;-71
2023/09/06 07:28:47;;;;;;;16.75;8.35;;;;;;;24.12;80.38;102020.75;6067962;19;20578;-72
2023/09/06 07:30:53;;;;;;;13.23;7.72;;;;;;;24.28;77.66;102017.69;6071802;19;20002;-69
2023/09/06 07:33:01;;;;;;;11.32;7.47;;;;;;;24.48;77.86;102014.25;6064551;19;20022;-71
2023/09/06 07:35:08;;;;;;;13.73;8.75;;;;;;;24.77;76.74;102019.09;6067053;19;20090;-72
2023/09/06 07:37:13;;;;;;;15.25;7.30;;;;;;;24.83;75.29;102020.44;6066202;19;20125;-72
2023/09/06 07:39:23;;;;;;;15.25;7.90;;;;;;;24.97;72.80;102023.69;6062540;19;20011;-72
2023/09/06 07:41:28;;;;;;;17.33;8.45;;;;;;;24.88;74.49;102028.97;6060427;19;21106;-74
2023/09/06 07:43:34;;;;;;;14.15;7.95;;;;;;;25.26;72.96;102023.13;6063692;19;20619;-74
2023/09/06 07:45:39;;;;;;;15.85;8.48;;;;;;;25.27;73.64;102024.81;6065698;19;20014;-74
2023/09/06 07:47:45;;;;;;;13.52;7.50;;;;;;;25.44;72.89;102030.66;6067388;19;20011;-72
2023/09/06 07:49:53;;;;;;;13.63;7.70;;;;;;;25.35;72.22;102030.41;6076498;19;21299;-72
2023/09/06 07:52:04;;;;;;;13.93;7.45;;;;;;;25.46;71.03;102025.97;6092857;19;20856;-72
2023/09/06 07:54:10;;;;;;;12.38;7.55;;;;;;;25.78;69.91;102024.06;6070817;19;20506;-72
2023/09/06 07:56:15;;;;;;;12.57;7.15;;;;;;;25.87;69.69;102022.44;6073758;19;20458;-71
2023/09/06 07:58:20;;;;;;;14.60;7.47;;;;;;;26.02;69.92;102026.50;6076340;19;20656;-72
2023/09/06 08:00:36;;;;;;;10.60;7.22;;;;;;;26.01;68.94;102024.81;6072331;19;20003;-72
2023/09/06 08:02:41;;;;;;;15.85;8.32;;;;;;;25.75;68.45;102024.34;6074415;19;20011;-71
2023/09/06 08:04:47;;;;;;;15.00;7.43;;;;;;;26.21;68.17;102024.88;6072029;19;20019;-72
2023/09/06 08:06:55;;;;;;;13.00;7.25;;;;;;;26.36;67.28;102025.38;6080495;19;20442;-72
2023/09/06 08:09:00;;;;;;;11.80;6.75;;;;;;;26.49;66.46;102026.81;6075884;19;20081;-70
2023/09/06 08:11:04;;;;;;;14.20;7.68;;;;;;;26.54;65.54;102026.44;6074862;19;20011;-70
2023/09/06 08:13:14;;;;;;;13.18;7.35;;;;;;;26.40;66.17;102026.78;6075067;19;20002;-70
2023/09/06 08:15:20;;;;;;;13.05;7.47;;;;;;;26.39;66.08;102030.47;6087808;19;20370;-71
2023/09/06 08:17:27;;;;;;;13.52;6.90;;;;;;;26.84;66.97;102027.34;6080707;19;20345;-71
2023/09/06 08:19:33;;;;;;;14.88;7.00;;;;;;;26.69;66.04;102027.75;6077534;19;20439;-70
2023/09/06 08:21:38;;;;;;;15.30;6.97;;;;;;;26.86;64.64;102026.22;6082836;19;20279;-71
2023/09/06 08:23:45;;;;;;;11.88;5.95;;;;;;;27.07;65.04;102034.19;6080972;19;20264;-71
2023/09/06 08:25:51;;;;;;;13.43;6.80;;;;;;;27.11;63.66;102040.16;6072571;19;20010;-69
2023/09/06 08:27:58;;;;;;;14.13;6.90;;;;;;;27.28;63.18;102027.84;6083462;19;20007;-72
2023/09/06 08:30:04;;;;;;;10.95;7.40;;;;;;;27.17;63.76;102044.13;6078054;19;20031;-71
2023/09/06 08:32:10;;;;;;;16.17;7.40;;;;;;;27.30;62.29;102032.06;6082393;19;20007;-71
2023/09/06 08:34:15;;;;;;;14.10;6.85;;;;;;;27.19;63.42;102034.09;6076491;19;20611;-71
2023/09/06 08:36:23;;;;;;;11.98;6.20;;;;;;;27.43;61.92;102037.19;6074036;19;20319;-71
2023/09/06 08:38:32;;;;;;;15.57;6.57;;;;;;;27.51;63.25;102033.78;6065968;19;20007;-71
2023/09/06 08:40:42;;;;;;;12.65;6.53;;;;;;;27.88;60.48;102027.63;6075588;19;20318;-71
2023/09/06 08:42:45;;;;;;;11.15;6.22;;;;;;;27.99;60.39;102036.41;6069619;19;20373;-71
2023/09/06 08:44:51;;;;;;;12.13;6.25;;;;;;;28.11;59.56;102034.38;6074650;19;20041;-70
2023/09/06 08:47:02;;;;;;;11.07;5.70;;;;;;;28.39;59.04;102027.13;6068931;19;20439;-69
2023/09/06 08:49:07;;;;;;;9.95;5.63;;;;;;;28.49;58.88;102034.34;6064866;19;20028;-72
2023/09/06 08:51:14;;;;;;;10.63;5.78;;;;;;;28.24;57.98;102040.28;6070519;19;20425;-72
2023/09/06 08:53:21;;;;;;;11.90;5.63;;;;;;;28.26;58.15;102033.91;6061697;19;20038;-71
2023/09/06 08:55:32;;;;;;;11.38;5.65;;;;;;;28.36;57.04;102038.25;6073188;19;20310;-73
2023/09/06 08:57:40;;;;;;;10.40;6.05;;;;;;;28.29;57.44;102033.59;6069096;19;20093;-71
2023/09/06 08:59:49;;;;;;;10.20;5.65;;;;;;;28.33;57.69;102034.97;6069081;19;20010;-71
2023/09/06 09:01:54;;;;;;;10.20;5.40;;;;;;;28.74;57.00;102033.66;6082768;19;20026;-72
2023/09/06 09:03:59;;;;;;;11.48;6.00;;;;;;;28.41;56.92;102030.53;6078644;19;20010;-72
2023/09/06 09:06:09;;;;;;;9.93;4.82;;;;;;;28.87;55.92;102031.41;6080222;19;20287;-71
2023/09/06 09:08:16;;;;;;;11.45;5.72;;;;;;;29.06;57.45;102038.56;6079173;19;20015;-71
2023/09/06 09:10:25;;;;;;;11.07;5.28;;;;;;;28.84;56.11;102039.84;6069554;19;20078;-71
2023/09/06 09:12:31;;;;;;;11.00;5.50;;;;;;;29.42;55.87;102027.72;6072582;19;20353;-71
2023/09/06 09:14:39;;;;;;;11.18;5.05;;;;;;;29.79;54.38;102040.22;6055539;19;20530;-71
2023/09/06 09:16:44;;;;;;;12.05;6.38;;;;;;;29.38;54.20;102030.91;6066772;19;20492;-72
2023/09/06 09:18:49;;;;;;;11.15;5.78;;;;;;;29.42;54.70;102029.59;6070564;19;20442;-75
2023/09/06 09:21:00;;;;;;;13.18;6.03;;;;;;;29.67;54.06;102027.94;6068733;19;20400;-73
2023/09/06 09:23:06;;;;;;;12.90;5.75;;;;;;;29.67;53.75;102027.94;6061406;19;20007;-73
2023/09/06 09:25:16;;;;;;;9.35;5.90;;;;;;;29.91;54.09;102024.53;6068410;19;20467;-72
2023/09/06 09:27:23;;;;;;;10.95;6.00;;;;;;;30.11;55.13;102028.69;6063059;19;20451;-71
2023/09/06 09:29:31;;;;;;;12.73;7.15;;;;;;;30.04;55.55;102022.22;6061935;19;20535;-71
2023/09/06 09:31:40;;;;;;;10.68;5.22;;;;;;;30.06;54.26;102022.91;6070645;19;20517;-72
2023/09/06 09:33:54;;;;;;;11.55;7.00;;;;;;;30.12;55.79;102024.13;6065530;19;20082;-72
2023/09/06 09:36:00;;;;;;;13.25;7.35;;;;;;;30.18;55.40;102029.75;6070527;19;20457;-72
2023/09/06 09:38:06;;;;;;;16.30;8.52;;;;;;;30.36;55.37;102028.84;6067123;19;21143;-72
2023/09/06 09:40:20;;;;;;;14.30;8.35;;;;;;;30.02;55.73;102032.41;6069110;19;20542;-72